Time;durP1;ratioP1;P1;durP2;ratioP2;P2;SDS_P1;SDS_P2;PMS_P1;PMS_P2;Temp;Humidity;BMP_temperature;BMP_pressure;BME280_temperature;BME280_humidity;BME280_pressure;Samples;Min_cycle;Max_cycle;Signal;HPM_P1;HPM_P2
2020/12/01 00:02:26;;;;;;;4.13;3.73;;;19.00;24.00;;;;;;5074122;28;20218;-55
2020/12/01 00:04:52;;;;;;;3.47;3.03;;;19.00;24.00;;;;;;5073006;28;20205;-55
2020/12/01 00:07:18;;;;;;;3.80;3.50;;;19.00;23.90;;;;;;5073387;28;20187;-55
2020/12/01 00:09:44;;;;;;;3.93;3.57;;;19.10;24.00;;;;;;5073095;28;20409;-55
2020/12/01 00:12:11;;;;;;;3.47;3.17;;;19.10;23.90;;;;;;5073305;28;20440;-55
2020/12/01 00:14:36;;;;;;;3.42;3.22;;;19.10;23.90;;;;;;5073361;28;20158;-54
2020/12/01 00:17:02;;;;;;;3.13;2.87;;;19.10;23.80;;;;;;5073493;28;20663;-54
2020/12/01 00:19:28;;;;;;;2.87;2.67;;;19.20;23.80;;;;;;5073307;28;20614;-54
2020/12/01 00:21:53;;;;;;;3.20;3.00;;;19.20;23.60;;;;;;5072770;28;20610;-54
2020/12/01 00:24:19;;;;;;;4.47;3.63;;;19.20;23.70;;;;;;5071822;28;20633;-54
2020/12/01 00:26:45;;;;;;;3.10;2.90;;;19.20;23.60;;;;;;5072022;28;20190;-55
2020/12/01 00:29:10;;;;;;;3.00;2.70;;;19.20;23.60;;;;;;5073376;28;20234;-54
2020/12/01 00:31:38;;;;;;;3.23;3.03;;;19.20;23.60;;;;;;5073097;28;20189;-54
2020/12/01 00:34:04;;;;;;;3.47;3.20;;;19.30;23.70;;;;;;5073161;28;20230;-54
2020/12/01 00:36:29;;;;;;;3.63;3.10;;;19.30;23.70;;;;;;5072556;28;20246;-54
2020/12/01 00:38:55;;;;;;;3.17;2.97;;;19.30;23.70;;;;;;5074975;28;20509;-55
2020/12/01 00:41:21;;;;;;;3.00;2.80;;;19.40;23.80;;;;;;5076731;28;20832;-55
2020/12/01 00:43:46;;;;;;;3.20;2.90;;;19.40;23.80;;;;;;5076831;28;20212;-54
2020/12/01 00:46:12;;;;;;;3.43;3.13;;;19.40;23.80;;;;;;5076701;28;20194;-54
2020/12/01 00:48:38;;;;;;;3.70;3.40;;;19.40;23.80;;;;;;5076676;28;20233;-54
2020/12/01 00:51:03;;;;;;;3.23;3.03;;;19.50;23.80;;;;;;5075781;28;20229;-55
2020/12/01 00:53:29;;;;;;;2.67;2.47;;;19.50;23.80;;;;;;5076880;28;20167;-55
2020/12/01 00:55:54;;;;;;;2.90;2.70;;;19.50;23.80;;;;;;5076488;28;20621;-55
2020/12/01 00:58:20;;;;;;;5.03;3.63;;;19.50;23.60;;;;;;5076690;28;20155;-55
2020/12/01 01:00:46;;;;;;;2.70;2.50;;;19.60;23.60;;;;;;5076365;28;20626;-54
2020/12/01 01:03:12;;;;;;;3.33;2.60;;;19.60;23.60;;;;;;5076532;28;20158;-55
2020/12/01 01:05:38;;;;;;;2.80;2.60;;;19.60;23.50;;;;;;5074547;28;20177;-55
2020/12/01 01:08:04;;;;;;;2.70;2.50;;;19.60;23.50;;;;;;5076367;28;20167;-55
2020/12/01 01:10:31;;;;;;;2.70;2.50;;;19.70;23.50;;;;;;5075123;28;20182;-55
2020/12/01 01:12:58;;;;;;;3.58;3.13;;;19.70;23.40;;;;;;5076445;28;20158;-55
2020/12/01 01:15:33;;;;;;;3.80;3.50;;;19.70;23.40;;;;;;5076177;28;20541;-55
2020/12/01 01:18:00;;;;;;;2.88;2.67;;;19.70;23.40;;;;;;5076329;28;20434;-55
2020/12/01 01:20:26;;;;;;;2.90;2.70;;;19.70;23.30;;;;;;5075621;28;20139;-56
2020/12/01 01:22:52;;;;;;;2.65;2.45;;;19.80;23.40;;;;;;5076128;28;20238;-56
2020/12/01 01:25:17;;;;;;;3.23;2.93;;;19.80;23.30;;;;;;5076135;28;20182;-56
2020/12/01 01:27:47;;;;;;;3.47;3.17;;;19.80;23.30;;;;;;5076179;28;20154;-56
2020/12/01 01:30:15;;;;;;;2.90;2.70;;;19.80;23.30;;;;;;5075852;28;20159;-56
2020/12/01 01:32:41;;;;;;;3.20;2.90;;;19.80;23.30;;;;;;5075946;28;20194;-55
2020/12/01 01:35:07;;;;;;;3.27;2.97;;;19.80;23.80;;;;;;5075377;28;20157;-56
2020/12/01 01:37:32;;;;;;;2.67;2.47;;;19.80;23.30;;;;;;5091704;28;20393;-56
2020/12/01 01:39:58;;;;;;;2.57;2.37;;;19.90;23.80;;;;;;5075746;28;20159;-56
2020/12/01 01:42:24;;;;;;;2.70;2.50;;;19.90;23.30;;;;;;5075906;28;20191;-56
2020/12/01 01:44:52;;;;;;;3.00;2.65;;;19.90;23.20;;;;;;5075660;28;20170;-56
2020/12/01 01:47:29;;;;;;;3.80;2.63;;;19.90;23.20;;;;;;5074315;28;20210;-55
2020/12/01 01:49:57;;;;;;;3.45;2.55;;;19.90;23.20;;;;;;5074652;28;20746;-56
2020/12/01 01:52:36;;;;;;;3.17;2.78;;;19.90;23.20;;;;;;5075609;28;20758;-56
2020/12/01 01:55:10;;;;;;;3.25;2.97;;;19.90;23.20;;;;;;5075420;28;20151;-55
2020/12/01 01:57:37;;;;;;;2.75;2.55;;;19.90;23.20;;;;;;5075614;28;20565;-56
2020/12/01 02:00:18;;;;;;;2.95;2.75;;;19.90;23.20;;;;;;5075273;28;20159;-56
2020/12/01 02:02:44;;;;;;;2.90;2.70;;;19.90;23.20;;;;;;5075421;28;20146;-56
2020/12/01 02:05:09;;;;;;;2.97;2.77;;;19.90;23.20;;;;;;5074730;28;20163;-55
2020/12/01 02:07:35;;;;;;;2.57;2.37;;;19.90;23.20;;;;;;5075702;28;20166;-56
2020/12/01 02:10:01;;;;;;;3.43;3.20;;;19.90;23.20;;;;;;5075120;28;20184;-56
2020/12/01 02:12:27;;;;;;;2.85;2.55;;;19.90;23.20;;;;;;5075072;28;20190;-56
2020/12/01 02:14:58;;;;;;;3.37;3.07;;;19.90;23.20;;;;;;5075058;28;20159;-56
2020/12/01 02:17:29;;;;;;;3.08;2.88;;;19.90;23.20;;;;;;5075273;28;20147;-56
2020/12/01 02:19:59;;;;;;;2.42;2.22;;;19.90;23.20;;;;;;5074737;28;20537;-56
2020/12/01 02:22:28;;;;;;;2.58;2.38;;;19.90;23.20;;;;;;5074979;28;20155;-55
2020/12/01 02:24:56;;;;;;;2.50;2.30;;;19.90;23.70;;;;;;5074994;28;20655;-56
2020/12/01 02:27:26;;;;;;;2.80;2.53;;;19.90;23.20;;;;;;5073898;28;20200;-56
2020/12/01 02:29:55;;;;;;;2.92;2.65;;;19.90;23.20;;;;;;5074674;28;20514;-56
2020/12/01 02:32:26;;;;;;;2.83;2.63;;;19.90;23.20;;;;;;5074779;28;20503;-56
2020/12/01 02:34:59;;;;;;;2.25;2.05;;;19.90;23.20;;;;;;5074160;28;20155;-56
2020/12/01 02:37:28;;;;;;;2.53;2.33;;;19.90;23.20;;;;;;5074853;28;20139;-56
2020/12/01 02:39:54;;;;;;;3.25;2.95;;;19.90;23.20;;;;;;5073389;28;20146;-56
2020/12/01 02:42:23;;;;;;;2.73;2.53;;;19.90;23.20;;;;;;5074753;28;20499;-55
2020/12/01 02:44:56;;;;;;;2.97;2.78;;;19.90;23.20;;;;;;5073274;28;20785;-55
2020/12/01 02:47:26;;;;;;;2.47;2.33;;;19.90;23.20;;;;;;5073329;28;20158;-55
2020/12/01 02:49:52;;;;;;;1.95;1.85;;;19.90;23.20;;;;;;5073934;28;20189;-55
2020/12/01 02:52:20;;;;;;;2.70;2.50;;;19.90;23.20;;;;;;5074339;28;20283;-56
2020/12/01 02:54:47;;;;;;;2.70;2.50;;;19.90;23.20;;;;;;5072933;28;20164;-56
2020/12/01 02:57:13;;;;;;;3.00;2.80;;;19.90;23.20;;;;;;5073216;28;20186;-56
2020/12/01 02:59:39;;;;;;;3.08;2.88;;;19.90;23.20;;;;;;5074007;28;20146;-55
2020/12/01 03:02:04;;;;;;;3.30;2.60;;;19.90;23.20;;;;;;5072598;28;20155;-55
2020/12/01 03:04:30;;;;;;;2.50;2.30;;;19.90;23.20;;;;;;5072929;28;20182;-55
2020/12/01 03:06:55;;;;;;;2.70;2.50;;;19.90;23.20;;;;;;5073724;28;20166;-56
2020/12/01 03:09:21;;;;;;;2.10;2.00;;;19.90;23.20;;;;;;5074201;28;20158;-56
2020/12/01 03:11:48;;;;;;;2.80;2.60;;;19.90;23.20;;;;;;5073934;28;20213;-56
2020/12/01 03:14:14;;;;;;;2.60;2.40;;;19.90;23.20;;;;;;5074143;28;20796;-56
2020/12/01 03:16:40;;;;;;;2.77;2.57;;;19.90;23.30;;;;;;5073939;28;20166;-55
2020/12/01 03:19:06;;;;;;;2.57;2.37;;;19.90;23.30;;;;;;5072757;28;20185;-55
2020/12/01 03:21:31;;;;;;;2.30;2.07;;;19.90;23.30;;;;;;5073390;28;20162;-55
2020/12/01 03:23:57;;;;;;;2.50;2.30;;;19.90;23.30;;;;;;5073944;28;20201;-55
2020/12/01 03:26:25;;;;;;;2.50;2.30;;;19.90;23.30;;;;;;5073829;28;20536;-56
2020/12/01 03:28:51;;;;;;;2.35;2.15;;;19.90;23.30;;;;;;5073850;28;20186;-55
2020/12/01 03:31:19;;;;;;;2.43;2.23;;;19.90;23.30;;;;;;5073554;28;20226;-55
2020/12/01 03:33:45;;;;;;;2.22;2.13;;;19.90;23.30;;;;;;5073841;28;20242;-55
2020/12/01 03:36:11;;;;;;;2.30;2.20;;;19.90;23.30;;;;;;5073513;28;20157;-56
2020/12/01 03:38:37;;;;;;;2.20;2.10;;;19.90;23.30;;;;;;5073775;28;20159;-55
2020/12/01 03:41:04;;;;;;;2.50;2.30;;;19.90;23.40;;;;;;5073514;28;20792;-56
2020/12/01 03:43:30;;;;;;;2.35;2.15;;;19.90;23.90;;;;;;5074134;28;20166;-56
2020/12/01 03:45:56;;;;;;;2.53;2.33;;;19.90;23.40;;;;;;5073275;28;20174;-55
2020/12/01 03:48:24;;;;;;;2.40;2.23;;;19.90;23.40;;;;;;5073712;28;20474;-55
2020/12/01 03:50:50;;;;;;;2.53;2.33;;;19.90;23.30;;;;;;5072855;28;20577;-56
2020/12/01 03:53:16;;;;;;;2.30;2.10;;;19.90;23.30;;;;;;5073809;28;20265;-56
2020/12/01 03:55:41;;;;;;;2.43;2.23;;;19.90;23.30;;;;;;5072314;28;20195;-56
2020/12/01 03:58:07;;;;;;;2.33;2.13;;;19.90;23.30;;;;;;5072421;28;20190;-56
2020/12/01 04:00:33;;;;;;;2.80;2.57;;;19.90;23.30;;;;;;5073377;28;20205;-56
2020/12/01 04:02:58;;;;;;;2.53;2.33;;;19.90;23.30;;;;;;5073530;28;20167;-56
2020/12/01 04:05:27;;;;;;;2.20;2.00;;;19.90;23.30;;;;;;5073041;28;20159;-56
2020/12/01 04:07:53;;;;;;;2.33;2.22;;;19.90;23.30;;;;;;5073588;28;20158;-56
2020/12/01 04:10:21;;;;;;;2.20;2.00;;;19.90;23.30;;;;;;5075417;28;20506;-55
2020/12/01 04:12:47;;;;;;;2.65;2.45;;;19.90;23.30;;;;;;5096493;28;20181;-55
2020/12/01 04:15:14;;;;;;;2.47;2.37;;;19.90;23.30;;;;;;5097527;28;20157;-55
2020/12/01 04:17:40;;;;;;;2.85;2.25;;;19.90;23.20;;;;;;5097697;28;20158;-55
2020/12/01 04:20:07;;;;;;;2.83;2.40;;;19.90;23.20;;;;;;5096943;28;20154;-56
2020/12/01 04:22:33;;;;;;;2.50;2.30;;;19.90;23.20;;;;;;5097609;28;20256;-55
2020/12/01 04:24:59;;;;;;;1.73;1.63;;;20.00;23.30;;;;;;5079483;28;20189;-55
2020/12/01 04:27:25;;;;;;;2.33;2.22;;;20.00;23.20;;;;;;5097764;28;20208;-56
2020/12/01 04:29:53;;;;;;;2.80;1.57;;;20.00;23.20;;;;;;5079189;28;20177;-56
2020/12/01 04:32:19;;;;;;;2.00;1.90;;;20.00;23.20;;;;;;5097385;28;20192;-56
2020/12/01 04:34:44;;;;;;;2.60;2.40;;;20.00;23.20;;;;;;5078770;28;20158;-56
2020/12/01 04:37:10;;;;;;;2.20;2.00;;;20.00;23.20;;;;;;5097385;28;20166;-57
2020/12/01 04:39:36;;;;;;;2.50;2.30;;;20.00;23.10;;;;;;5097160;28;20593;-57
2020/12/01 04:42:03;;;;;;;2.10;2.00;;;20.10;23.20;;;;;;5113027;28;20524;-56
2020/12/01 04:44:34;;;;;;;2.33;2.13;;;20.10;23.20;;;;;;5097116;28;20172;-56
2020/12/01 04:47:05;;;;;;;2.88;2.05;;;20.40;23.30;;;;;;5097016;28;20165;-56
2020/12/01 04:49:45;;;;;;;2.30;2.10;;;20.10;23.10;;;;;;5096994;28;20168;-56
2020/12/01 04:52:53;;;;;;;2.00;1.90;;;20.20;23.10;;;;;;5096803;28;20259;-56
2020/12/01 04:55:33;;;;;;;1.90;1.80;;;20.20;23.10;;;;;;5096778;28;20162;-56
2020/12/01 04:58:25;;;;;;;2.05;1.95;;;20.20;23.00;;;;;;5096678;28;20216;-56
2020/12/01 05:01:13;;;;;;;2.42;2.22;;;20.20;23.00;;;;;;5096604;28;20216;-56
2020/12/01 05:03:53;;;;;;;2.35;2.15;;;20.20;23.00;;;;;;5096752;28;20601;-55
2020/12/01 05:09:52;;;;;;;1.85;1.75;;;20.30;23.00;;;;;;5097015;28;20150;-56
2020/12/01 05:12:30;;;;;;;2.17;1.98;;;20.30;23.00;;;;;;5084720;28;20292;-56
2020/12/01 05:15:11;;;;;;;1.98;1.83;;;20.30;22.90;;;;;;5078304;28;20264;-56
2020/12/01 05:18:02;;;;;;;1.63;1.52;;;20.30;22.90;;;;;;5096660;28;20164;-55
2020/12/01 05:20:27;;;;;;;3.40;2.45;;;20.30;22.80;;;;;;5096053;28;20154;-56
2020/12/01 05:22:57;;;;;;;1.90;1.80;;;20.40;22.90;;;;;;5095924;28;20150;-56
2020/12/01 05:25:29;;;;;;;2.45;2.17;;;20.40;22.90;;;;;;5061454;28;20174;-56
2020/12/01 05:28:13;;;;;;;2.22;1.83;;;20.40;22.80;;;;;;5096246;28;20236;-56
2020/12/01 05:30:42;;;;;;;2.00;1.90;;;20.40;22.80;;;;;;5096137;28;20208;-56
2020/12/01 05:33:25;;;;;;;1.77;1.67;;;20.50;22.90;;;;;;5077945;28;20573;-56
2020/12/01 05:36:05;;;;;;;1.40;1.30;;;20.50;22.80;;;;;;5095634;28;20168;-56
2020/12/01 05:38:32;;;;;;;2.08;1.88;;;20.50;22.80;;;;;;5096421;28;20208;-57
2020/12/01 05:41:20;;;;;;;2.10;1.90;;;20.50;22.80;;;;;;5095795;28;20173;-57
2020/12/01 05:43:54;;;;;;;1.80;1.65;;;20.60;22.80;;;;;;5096056;28;20160;-57
2020/12/01 05:46:40;;;;;;;2.00;1.90;;;20.60;22.80;;;;;;5095691;28;20267;-57
2020/12/01 05:49:42;;;;;;;1.95;1.85;;;20.60;22.80;;;;;;5095949;28;20233;-57
2020/12/01 05:52:24;;;;;;;2.00;1.88;;;20.60;22.70;;;;;;5091241;28;20224;-57
2020/12/01 05:55:12;;;;;;;1.58;1.48;;;20.60;22.60;;;;;;5077356;28;20628;-57
2020/12/01 05:57:38;;;;;;;1.85;1.75;;;20.70;22.60;;;;;;5095794;28;20150;-57
2020/12/01 06:00:13;;;;;;;2.10;1.90;;;20.70;22.60;;;;;;5077571;28;20161;-57
2020/12/01 06:03:08;;;;;;;1.70;1.60;;;20.70;22.50;;;;;;5111315;28;20652;-56
2020/12/01 06:05:37;;;;;;;2.05;1.85;;;20.70;22.50;;;;;;5095065;28;20154;-56
2020/12/01 06:08:30;;;;;;;1.63;1.50;;;20.80;22.60;;;;;;5095381;28;20158;-56
2020/12/01 06:11:38;;;;;;;1.67;1.58;;;20.80;22.50;;;;;;5095006;28;20533;-56
2020/12/01 06:14:15;;;;;;;1.60;1.50;;;20.80;22.50;;;;;;5094799;28;20246;-57
2020/12/01 06:17:07;;;;;;;1.63;1.52;;;20.80;22.40;;;;;;5095065;28;20242;-57
2020/12/01 06:19:50;;;;;;;2.13;1.77;;;20.90;22.00;;;;;;5093774;28;20216;-56
2020/12/01 06:22:19;;;;;;;1.80;1.70;;;20.90;22.50;;;;;;5095139;28;20162;-57
2020/12/01 06:25:06;;;;;;;1.75;1.65;;;20.90;22.40;;;;;;5094912;28;20161;-56
2020/12/01 06:28:10;;;;;;;1.50;1.40;;;20.90;22.40;;;;;;5095228;28;20162;-57
2020/12/01 06:30:54;;;;;;;1.90;1.80;;;21.00;22.40;;;;;;5094544;28;20618;-57
2020/12/01 06:33:44;;;;;;;2.50;2.00;;;21.00;22.30;;;;;;5094951;28;20237;-57
2020/12/01 06:36:42;;;;;;;1.98;1.80;;;21.10;22.40;;;;;;5093283;28;20185;-57
2020/12/01 06:39:16;;;;;;;2.05;1.88;;;21.10;22.30;;;;;;5094655;28;20161;-57
2020/12/01 06:42:18;;;;;;;1.70;1.60;;;21.10;22.30;;;;;;5094612;28;20153;-57
2020/12/01 06:44:48;;;;;;;2.22;1.70;;;21.10;22.20;;;;;;5062041;28;20185;-57
2020/12/01 06:47:14;;;;;;;1.80;1.70;;;21.10;22.20;;;;;;5094622;28;20169;-56
2020/12/01 06:49:40;;;;;;;1.70;1.60;;;21.20;22.20;;;;;;5075663;28;20178;-57
2020/12/01 06:52:12;;;;;;;3.50;1.58;;;21.20;22.20;;;;;;5076602;28;20300;-59
2020/12/01 06:54:57;;;;;;;1.70;1.60;;;21.20;22.20;;;;;;5093936;28;20208;-57
2020/12/01 06:57:34;;;;;;;1.67;1.58;;;21.20;22.20;;;;;;5094566;28;20236;-56
2020/12/01 07:00:02;;;;;;;1.77;1.52;;;21.30;22.20;;;;;;5094162;28;20153;-56
2020/12/01 07:02:32;;;;;;;1.55;1.45;;;21.30;22.10;;;;;;5094243;28;20154;-57
2020/12/01 07:05:32;;;;;;;1.40;1.30;;;21.30;22.10;;;;;;5094020;28;20150;-58
2020/12/01 07:07:58;;;;;;;1.95;1.73;;;21.30;22.10;;;;;;5093975;28;20236;-56
2020/12/01 07:10:30;;;;;;;1.90;1.80;;;21.30;22.10;;;;;;5075851;28;20585;-56
2020/12/01 07:13:35;;;;;;;1.83;1.73;;;21.30;22.10;;;;;;5094031;28;20408;-56
2020/12/01 07:16:29;;;;;;;1.50;1.40;;;21.30;22.00;;;;;;5093906;28;20158;-56
2020/12/01 07:19:16;;;;;;;1.95;1.80;;;21.40;22.10;;;;;;5093967;28;20514;-56
2020/12/01 07:22:08;;;;;;;10.32;9.43;;;21.40;22.00;;;;;;5102280;28;20588;-53
2020/12/01 07:24:48;;;;;;;13.40;11.68;;;18.90;16.80;;;;;;5054153;28;20190;-51
2020/12/01 07:27:42;;;;;;;8.38;7.63;;;17.10;18.70;;;;;;5082739;28;20254;-60
2020/12/01 07:30:24;;;;;;;7.57;6.88;;;17.00;22.20;;;;;;5091852;28;20161;-59
2020/12/01 07:32:56;;;;;;;7.90;7.10;;;17.20;23.20;;;;;;5092221;28;20656;-58
2020/12/01 07:35:42;;;;;;;7.90;6.05;;;17.40;23.50;;;;;;5074851;28;20174;-57
2020/12/01 07:38:20;;;;;;;7.03;6.43;;;17.50;23.20;;;;;;5074936;28;20165;-56
2020/12/01 07:41:10;;;;;;;7.20;6.55;;;17.80;22.80;;;;;;5093544;28;20229;-56
2020/12/01 07:43:36;;;;;;;6.00;5.40;;;18.00;22.80;;;;;;5091942;28;20154;-57
2020/12/01 07:46:03;;;;;;;6.23;5.73;;;18.10;22.20;;;;;;5092645;28;20196;-56
2020/12/01 07:48:30;;;;;;;6.13;5.53;;;18.30;22.00;;;;;;5075131;28;20474;-55
2020/12/01 07:51:05;;;;;;;9.25;8.35;;;18.40;21.50;;;;;;5105715;28;20244;-53
2020/12/01 07:53:34;;;;;;;8.88;6.88;;;18.50;21.10;;;;;;5111929;28;20168;-56
2020/12/01 07:56:04;;;;;;;6.68;5.75;;;18.50;20.90;;;;;;5113185;28;20481;-55
2020/12/01 07:58:32;;;;;;;6.40;5.80;;;18.50;20.70;;;;;;5069635;28;20841;-56
2020/12/01 08:01:00;;;;;;;6.00;5.50;;;18.60;21.00;;;;;;5019513;28;20478;-56
2020/12/01 08:03:36;;;;;;;5.82;5.22;;;18.70;20.40;;;;;;5080455;28;20169;-57
2020/12/01 08:06:10;;;;;;;5.85;5.10;;;18.70;20.40;;;;;;5082547;28;20205;-56
2020/12/01 08:08:38;;;;;;;5.35;4.85;;;18.80;20.50;;;;;;5084965;28;20184;-54
2020/12/01 08:11:06;;;;;;;4.32;3.92;;;18.90;20.40;;;;;;5054812;28;20320;-56
2020/12/01 08:13:35;;;;;;;4.65;3.10;;;19.00;20.50;;;;;;5080027;28;20173;-57
2020/12/01 08:16:10;;;;;;;4.25;3.85;;;19.00;20.60;;;;;;5043584;28;20177;-55
2020/12/01 08:18:37;;;;;;;3.55;3.25;;;19.10;20.80;;;;;;5049420;28;20266;-55
2020/12/01 08:21:03;;;;;;;3.97;3.67;;;19.20;21.00;;;;;;5069327;28;20255;-59
2020/12/01 08:23:30;;;;;;;3.60;3.30;;;19.30;21.20;;;;;;5090304;28;20633;-58
2020/12/01 08:26:20;;;;;;;3.88;3.40;;;19.40;21.20;;;;;;5086229;28;21084;-57
2020/12/01 08:28:54;;;;;;;6.32;3.03;;;19.40;21.20;;;;;;5099273;28;20196;-58
2020/12/01 08:31:37;;;;;;;3.35;3.05;;;19.50;21.30;;;;;;5092628;28;20513;-57
2020/12/01 08:34:40;;;;;;;2.95;2.70;;;19.50;21.40;;;;;;5093287;28;20184;-59
2020/12/01 08:37:34;;;;;;;7.15;2.70;;;19.60;21.70;;;;;;5071245;28;20288;-59
2020/12/01 08:40:15;;;;;;;4.20;3.42;;;18.80;21.10;;;;;;5073251;28;20177;-56
2020/12/01 08:43:20;;;;;;;3.70;2.42;;;19.70;21.90;;;;;;5095939;28;20210;-56
2020/12/01 08:46:13;;;;;;;7.40;2.83;;;19.70;21.80;;;;;;5078847;28;20643;-57
2020/12/01 08:48:40;;;;;;;2.78;2.58;;;19.70;21.90;;;;;;5065639;28;20204;-54
2020/12/01 08:51:22;;;;;;;2.55;2.35;;;19.80;22.00;;;;;;5095742;28;20224;-55
2020/12/01 08:53:57;;;;;;;3.65;2.67;;;19.80;22.00;;;;;;5095770;28;20222;-55
2020/12/01 08:56:47;;;;;;;3.08;2.78;;;19.80;22.10;;;;;;5098040;28;20176;-57
2020/12/01 08:59:36;;;;;;;2.63;2.42;;;19.80;22.20;;;;;;5075110;28;20189;-56
2020/12/01 09:02:04;;;;;;;4.43;2.45;;;19.80;22.20;;;;;;5092574;28;20184;-56
2020/12/01 09:04:35;;;;;;;3.22;2.92;;;19.80;22.20;;;;;;5098259;28;20177;-57
2020/12/01 09:07:29;;;;;;;2.75;2.50;;;20.00;22.40;;;;;;5102322;28;20184;-55
2020/12/01 09:10:12;;;;;;;2.67;2.47;;;19.90;22.30;;;;;;5094744;28;20169;-55
2020/12/01 09:23:41;;;;;;;3.33;2.97;;;19.90;22.60;;;;;;5102511;28;20194;-57
2020/12/01 09:26:21;;;;;;;2.90;2.10;;;19.90;22.60;;;;;;5096583;28;20177;-55
2020/12/01 09:28:50;;;;;;;2.70;2.50;;;19.90;22.60;;;;;;5091515;28;20209;-54
2020/12/01 09:31:18;;;;;;;2.40;2.20;;;19.90;22.60;;;;;;5098059;28;20196;-55
2020/12/01 09:33:44;;;;;;;2.78;2.28;;;19.90;22.70;;;;;;5100916;28;20406;-55
2020/12/01 09:36:19;;;;;;;3.33;2.50;;;19.90;22.70;;;;;;5113685;27;20551;-54
2020/12/01 09:38:45;;;;;;;3.65;2.63;;;19.90;22.80;;;;;;5092916;28;20180;-57
2020/12/01 09:41:16;;;;;;;2.65;2.13;;;19.90;22.90;;;;;;5098235;28;20583;-57
2020/12/01 09:44:06;;;;;;;2.50;2.30;;;19.90;23.00;;;;;;5097327;28;20502;-56
2020/12/01 09:46:46;;;;;;;2.30;2.10;;;20.00;23.00;;;;;;5100331;28;20192;-56
2020/12/01 09:49:12;;;;;;;3.45;2.67;;;20.00;23.00;;;;;;5092866;28;20169;-58
2020/12/01 09:51:39;;;;;;;2.80;2.60;;;20.00;23.00;;;;;;5097676;28;20236;-58
2020/12/01 09:54:23;;;;;;;2.40;2.20;;;20.00;22.90;;;;;;5094683;27;20203;-56
2020/12/01 09:56:55;;;;;;;2.80;2.60;;;20.00;22.90;;;;;;5101487;28;20173;-57
2020/12/01 10:13:17;;;;;;;3.85;2.90;;;20.00;23.10;;;;;;5095632;28;20222;-56
2020/12/01 10:34:22;;;;;;;3.92;2.90;;;20.00;23.30;;;;;;5079127;28;20169;-57
2020/12/01 10:36:53;;;;;;;4.68;2.53;;;20.00;23.40;;;;;;5097323;28;20181;-56
2020/12/01 10:39:19;;;;;;;2.63;2.42;;;20.00;23.40;;;;;;5090342;28;20173;-55
2020/12/01 10:41:45;;;;;;;2.53;2.33;;;20.30;23.60;;;;;;5096340;28;20277;-56
2020/12/01 10:44:11;;;;;;;3.83;2.50;;;20.00;23.40;;;;;;5069048;28;20208;-58
2020/12/01 10:46:37;;;;;;;4.28;2.95;;;20.00;23.40;;;;;;5060100;28;20279;-56
2020/12/01 10:49:04;;;;;;;3.30;2.60;;;20.00;23.40;;;;;;5069124;28;20777;-55
2020/12/01 10:51:32;;;;;;;2.17;1.98;;;20.00;23.40;;;;;;5076617;28;20470;-58
2020/12/01 10:53:58;;;;;;;2.83;2.53;;;20.00;23.50;;;;;;5079483;28;20221;-58
2020/12/01 10:56:24;;;;;;;2.83;2.63;;;20.00;23.60;;;;;;5079659;28;20223;-59
2020/12/01 10:58:53;;;;;;;2.40;2.20;;;20.10;23.60;;;;;;5073130;28;20613;-57
2020/12/01 11:01:18;;;;;;;4.82;2.50;;;20.10;23.60;;;;;;5092964;28;20408;-56
2020/12/01 11:03:47;;;;;;;3.10;2.77;;;20.10;23.40;;;;;;5079329;28;20701;-56
2020/12/01 11:06:13;;;;;;;3.92;3.08;;;20.10;23.60;;;;;;5072141;28;20173;-56
2020/12/01 11:08:38;;;;;;;2.43;2.10;;;20.10;23.50;;;;;;5090316;28;20184;-58
2020/12/01 11:11:04;;;;;;;3.50;2.50;;;20.10;23.60;;;;;;5089686;28;20860;-57
2020/12/01 11:13:30;;;;;;;2.57;2.37;;;20.10;23.70;;;;;;5060739;28;20826;-56
2020/12/01 11:15:56;;;;;;;3.43;2.60;;;20.10;23.60;;;;;;5097401;28;20510;-55
2020/12/01 11:18:22;;;;;;;3.60;2.33;;;20.10;23.80;;;;;;5087939;28;20177;-54
2020/12/01 11:20:47;;;;;;;2.97;2.77;;;20.10;23.70;;;;;;5057924;28;20483;-57
2020/12/01 11:23:13;;;;;;;5.50;3.20;;;20.10;23.90;;;;;;5094671;28;20410;-56
2020/12/01 11:25:38;;;;;;;2.90;2.47;;;20.10;23.80;;;;;;5097844;28;20627;-56
2020/12/01 11:28:04;;;;;;;3.33;2.73;;;20.10;23.90;;;;;;5086349;28;20299;-56
2020/12/01 11:30:30;;;;;;;4.13;2.47;;;20.10;24.00;;;;;;5096087;28;20517;-54
2020/12/01 11:32:55;;;;;;;3.93;3.10;;;20.10;24.30;;;;;;5062784;28;20638;-56
2020/12/01 11:35:23;;;;;;;2.97;2.37;;;20.10;24.20;;;;;;5094850;28;20957;-58
2020/12/01 11:37:49;;;;;;;2.67;2.42;;;20.10;24.20;;;;;;5077968;28;20176;-57
2020/12/01 11:40:17;;;;;;;2.70;2.50;;;20.10;24.20;;;;;;5089237;28;20181;-56
2020/12/01 11:42:43;;;;;;;6.75;2.60;;;20.10;24.20;;;;;;5090389;27;20177;-53
2020/12/01 11:45:11;;;;;;;2.70;2.50;;;20.10;24.10;;;;;;5086524;28;20188;-53
2020/12/01 11:47:37;;;;;;;3.85;2.53;;;20.10;24.20;;;;;;5089340;28;21443;-53
2020/12/01 11:50:06;;;;;;;2.60;2.17;;;20.10;24.20;;;;;;5086209;28;20552;-55
2020/12/01 11:52:32;;;;;;;5.95;2.75;;;20.10;24.20;;;;;;5083987;28;20551;-52
2020/12/01 11:54:57;;;;;;;2.50;2.30;;;20.10;24.20;;;;;;5075358;28;20627;-54
2020/12/01 11:57:23;;;;;;;2.90;2.47;;;20.10;24.20;;;;;;5090582;28;20181;-54
2020/12/01 11:59:49;;;;;;;2.10;1.80;;;20.10;24.30;;;;;;5084635;28;20186;-54
2020/12/01 12:02:14;;;;;;;2.63;2.00;;;20.10;24.20;;;;;;5072734;28;20180;-54
2020/12/01 12:04:40;;;;;;;2.90;2.43;;;20.10;24.30;;;;;;5088497;28;20400;-53
2020/12/01 12:07:06;;;;;;;2.90;2.07;;;20.10;24.20;;;;;;5093046;28;20621;-55
2020/12/01 12:09:31;;;;;;;2.10;1.90;;;20.10;24.30;;;;;;5062821;28;20603;-56
2020/12/01 12:11:57;;;;;;;2.43;2.10;;;20.10;24.20;;;;;;5076315;28;20193;-55
2020/12/01 12:14:23;;;;;;;2.73;2.53;;;20.10;24.20;;;;;;5085782;28;20692;-54
2020/12/01 12:16:48;;;;;;;2.30;2.10;;;20.10;24.20;;;;;;5092435;28;20627;-53
2020/12/01 12:19:14;;;;;;;2.77;2.13;;;20.10;24.20;;;;;;5082380;28;20210;-55
2020/12/01 12:21:40;;;;;;;2.80;2.50;;;20.10;24.20;;;;;;5081924;28;21074;-54
2020/12/01 12:24:05;;;;;;;3.03;2.73;;;20.10;24.20;;;;;;5077190;28;20170;-52
2020/12/01 12:26:31;;;;;;;2.80;2.30;;;20.10;24.30;;;;;;5089779;28;20183;-55
2020/12/01 12:28:57;;;;;;;3.70;1.93;;;20.10;24.30;;;;;;5077123;28;20734;-55
2020/12/01 12:31:22;;;;;;;2.90;2.67;;;20.10;24.10;;;;;;5069130;28;20201;-53
2020/12/01 12:33:48;;;;;;;3.13;2.33;;;20.10;23.90;;;;;;5095146;28;21255;-55
2020/12/01 12:36:15;;;;;;;2.42;2.17;;;20.10;24.00;;;;;;5092360;28;20169;-54
2020/12/01 12:38:41;;;;;;;4.75;2.28;;;20.10;23.90;;;;;;5082251;27;20165;-52
2020/12/01 12:41:07;;;;;;;2.77;2.40;;;20.10;23.80;;;;;;5073673;28;20203;-55
2020/12/01 12:43:33;;;;;;;5.25;2.83;;;20.10;24.20;;;;;;5077085;28;20501;-54
2020/12/01 12:45:59;;;;;;;3.37;2.40;;;20.20;24.30;;;;;;5093604;28;20246;-55
2020/12/01 12:48:26;;;;;;;22.97;2.93;;;20.20;24.30;;;;;;5077953;28;20409;-56
2020/12/01 12:50:52;;;;;;;5.40;2.90;;;20.20;24.30;;;;;;5090792;28;20683;-52
2020/12/01 12:53:18;;;;;;;5.40;2.43;;;20.20;24.30;;;;;;5097865;28;20206;-52
2020/12/01 12:55:43;;;;;;;4.15;2.83;;;20.20;24.30;;;;;;5089946;28;20393;-54
2020/12/01 12:58:09;;;;;;;4.70;2.53;;;20.10;24.30;;;;;;5063209;28;20261;-53
2020/12/01 13:00:35;;;;;;;4.53;2.33;;;20.10;24.20;;;;;;5056817;28;20606;-54
2020/12/01 13:03:01;;;;;;;8.57;2.27;;;20.10;24.30;;;;;;5089748;28;20165;-54
2020/12/01 13:05:27;;;;;;;3.42;2.90;;;20.10;24.30;;;;;;5096102;28;20460;-54
2020/12/01 13:07:57;;;;;;;3.22;2.65;;;20.10;24.20;;;;;;5089166;28;20458;-53
2020/12/01 13:10:23;;;;;;;4.88;3.10;;;20.10;24.30;;;;;;5091240;28;20314;-52
2020/12/01 13:12:49;;;;;;;4.63;2.60;;;20.10;24.20;;;;;;5073904;28;20198;-54
2020/12/01 13:15:17;;;;;;;3.45;2.97;;;20.10;24.20;;;;;;5092805;28;20921;-54
2020/12/01 13:17:44;;;;;;;4.68;2.40;;;20.10;24.30;;;;;;5071536;28;20181;-54
2020/12/01 13:20:16;;;;;;;3.67;3.13;;;20.10;24.20;;;;;;5085237;28;20166;-53
2020/12/01 13:22:42;;;;;;;2.85;2.47;;;20.10;24.20;;;;;;5093760;28;20245;-55
2020/12/01 13:25:08;;;;;;;3.57;1.97;;;20.10;24.20;;;;;;5077112;28;20169;-54
2020/12/01 13:27:34;;;;;;;3.42;2.45;;;20.10;24.20;;;;;;5069088;28;20883;-55
2020/12/01 13:30:00;;;;;;;4.00;2.80;;;20.10;24.20;;;;;;5085764;28;20173;-54
2020/12/01 13:32:25;;;;;;;2.20;2.00;;;20.10;24.30;;;;;;5090946;28;20184;-54
2020/12/01 13:34:51;;;;;;;3.13;2.40;;;20.10;24.20;;;;;;5078920;28;20614;-54
2020/12/01 13:37:18;;;;;;;2.80;2.57;;;20.10;24.20;;;;;;5090012;27;20201;-53
2020/12/01 13:39:44;;;;;;;3.72;2.50;;;20.10;24.30;;;;;;5081501;28;21391;-54
2020/12/01 13:42:10;;;;;;;2.70;2.40;;;20.10;24.20;;;;;;5091824;28;20558;-54
2020/12/01 13:44:35;;;;;;;4.43;2.30;;;20.10;24.20;;;;;;5097869;28;20393;-54
2020/12/01 13:47:01;;;;;;;3.93;2.90;;;20.10;24.20;;;;;;5055139;28;20223;-53
2020/12/01 13:49:27;;;;;;;2.80;2.07;;;20.10;24.20;;;;;;5065390;28;20331;-54
2020/12/01 13:51:53;;;;;;;2.30;2.10;;;20.10;24.30;;;;;;5096015;28;20232;-56
2020/12/01 13:54:18;;;;;;;3.45;2.78;;;20.10;24.20;;;;;;5089892;28;20182;-54